createdAt,value
2018-05-17T00:02:19.018Z,9.67
2018-05-17T00:04:47.332Z,9.97
2018-05-17T00:07:17.402Z,11.07
2018-05-17T00:09:45.708Z,10.10
2018-05-17T00:12:14.055Z,14.60
2018-05-17T00:14:42.403Z,12.30
2018-05-17T00:17:11.496Z,9.87
2018-05-17T00:19:39.809Z,11.87
2018-05-17T00:22:08.125Z,16.17
2018-05-17T00:24:36.464Z,12.67
2018-05-17T00:27:04.786Z,18.97
2018-05-17T00:29:33.135Z,13.17
2018-05-17T00:32:01.454Z,15.87
2018-05-17T00:34:29.792Z,14.63
2018-05-17T00:36:58.097Z,11.40
2018-05-17T00:39:26.433Z,12.93
2018-05-17T00:41:55.515Z,16.57
2018-05-17T00:44:23.869Z,12.40
2018-05-17T00:46:52.170Z,14.27
2018-05-17T00:49:20.514Z,15.33
2018-05-17T00:51:48.845Z,11.23
2018-05-17T00:54:17.166Z,19.33
2018-05-17T00:56:45.494Z,13.07
2018-05-17T00:59:13.815Z,10.53
2018-05-17T01:01:42.140Z,13.30
2018-05-17T01:04:10.459Z,15.73
2018-05-17T01:06:40.609Z,20.60
2018-05-17T01:09:09.077Z,16.50
2018-05-17T01:11:39.230Z,14.23
2018-05-17T01:14:07.563Z,16.83
2018-05-17T01:16:36.666Z,18.23
2018-05-17T01:19:04.973Z,13.80
2018-05-17T01:21:34.159Z,11.63
2018-05-17T01:24:03.235Z,16.80
2018-05-17T01:26:33.343Z,13.37
2018-05-17T01:29:01.761Z,16.97
2018-05-17T01:31:30.824Z,16.27
2018-05-17T01:33:59.159Z,13.53
2018-05-17T01:36:27.472Z,21.73
2018-05-17T01:38:55.791Z,14.90
2018-05-17T01:41:24.102Z,18.60
2018-05-17T01:43:52.441Z,15.90
2018-05-17T01:46:20.746Z,19.30
2018-05-17T01:48:49.856Z,15.37
2018-05-17T01:51:19.081Z,17.93
2018-05-17T01:53:47.411Z,20.93
2018-05-17T01:56:15.744Z,18.17
2018-05-17T01:58:44.067Z,12.83
2018-05-17T02:01:12.381Z,16.67
2018-05-17T02:03:41.466Z,16.20
2018-05-17T02:06:09.805Z,13.63
2018-05-17T02:08:38.132Z,16.07
2018-05-17T02:11:06.444Z,19.23
2018-05-17T02:13:34.757Z,16.60
2018-05-17T02:16:03.088Z,15.70
2018-05-17T02:18:32.162Z,17.80
2018-05-17T02:21:00.519Z,23.83
2018-05-17T02:23:28.820Z,17.20
2018-05-17T02:25:57.151Z,20.60
2018-05-17T02:28:25.469Z,23.63
2018-05-17T02:30:53.789Z,19.63
2018-05-17T02:33:22.881Z,15.83
2018-05-17T02:35:52.000Z,23.47
2018-05-17T02:38:20.323Z,27.90
2018-05-17T02:40:48.651Z,20.27
2018-05-17T02:43:17.857Z,27.47
2018-05-17T02:45:46.922Z,25.90
2018-05-17T02:48:15.271Z,27.93
2018-05-17T02:50:43.597Z,27.53
2018-05-17T02:53:12.737Z,23.13
2018-05-17T02:55:41.048Z,24.57
2018-05-17T02:58:09.386Z,27.53
2018-05-17T03:00:37.695Z,26.27
2018-05-17T03:03:06.030Z,28.30
2018-05-17T03:05:35.136Z,22.87
2018-05-17T03:08:03.513Z,26.47
2018-05-17T03:10:32.582Z,26.17
2018-05-17T03:13:00.886Z,27.77
2018-05-17T03:15:29.207Z,28.67
2018-05-17T03:17:57.519Z,27.63
2018-05-17T03:20:25.859Z,23.50
2018-05-17T03:22:54.192Z,29.03
2018-05-17T03:25:22.560Z,23.90
2018-05-17T03:27:50.880Z,25.80
2018-05-17T03:30:19.961Z,31.23
2018-05-17T03:32:48.272Z,28.50
2018-05-17T03:35:18.365Z,28.93
2018-05-17T03:37:46.691Z,24.50
2018-05-17T03:40:15.774Z,25.70
2018-05-17T03:42:44.843Z,32.50
2018-05-17T03:45:14.207Z,24.87
2018-05-17T03:47:42.538Z,28.63
2018-05-17T03:50:10.864Z,28.37
2018-05-17T03:52:39.990Z,29.30
2018-05-17T03:55:08.308Z,33.73
2018-05-17T03:57:37.395Z,29.57
2018-05-17T04:00:05.703Z,28.13
2018-05-17T04:02:46.725Z,28.83
2018-05-17T04:05:26.852Z,40.23
2018-05-17T04:07:55.213Z,35.00
2018-05-17T04:10:23.534Z,40.83
2018-05-17T04:12:51.838Z,35.13
2018-05-17T04:15:21.169Z,36.90
2018-05-17T04:17:49.507Z,40.13
2018-05-17T04:20:17.820Z,37.30
2018-05-17T04:22:46.915Z,37.33
2018-05-17T04:25:15.983Z,36.27
2018-05-17T04:27:44.330Z,38.53
2018-05-17T04:30:12.666Z,46.60
2018-05-17T04:32:41.761Z,34.47
2018-05-17T04:35:11.612Z,41.53
2018-05-17T04:37:39.912Z,31.93
2018-05-17T04:40:08.257Z,31.20
2018-05-17T04:42:37.609Z,32.67
2018-05-17T04:45:05.956Z,31.60
2018-05-17T04:47:36.374Z,35.03
2018-05-17T04:50:05.586Z,40.67
2018-05-17T04:52:36.295Z,34.03
2018-05-17T04:55:05.605Z,37.97
2018-05-17T04:57:34.894Z,41.00
2018-05-17T05:00:03.395Z,29.77
2018-05-17T05:02:31.744Z,36.47
2018-05-17T05:05:00.060Z,36.80
2018-05-17T05:07:29.602Z,36.57
2018-05-17T05:09:58.121Z,30.67
2018-05-17T05:12:26.850Z,41.07
2018-05-17T05:14:55.298Z,34.07
2018-05-17T05:17:23.641Z,41.17
2018-05-17T05:19:51.943Z,39.77
2018-05-17T05:22:20.270Z,33.70
2018-05-17T05:24:48.600Z,34.93
2018-05-17T05:27:16.943Z,37.10
2018-05-17T05:29:45.312Z,32.37
2018-05-17T05:32:14.245Z,33.03
2018-05-17T05:34:42.584Z,34.20
2018-05-17T05:37:10.898Z,35.90
2018-05-17T05:39:40.009Z,31.00
2018-05-17T05:42:08.327Z,42.93
2018-05-17T05:44:36.665Z,36.73
2018-05-17T05:47:05.016Z,39.57
2018-05-17T05:49:34.135Z,36.50
2018-05-17T05:52:02.469Z,34.20
2018-05-17T05:54:30.802Z,30.10
2018-05-17T05:56:59.117Z,35.20
2018-05-17T05:59:27.472Z,38.23
2018-05-17T06:01:55.794Z,30.47
2018-05-17T06:04:24.106Z,30.33
2018-05-17T06:06:53.229Z,36.70
2018-05-17T06:09:22.321Z,37.10
2018-05-17T06:11:51.434Z,29.97
2018-05-17T06:14:19.751Z,30.07
2018-05-17T06:16:48.078Z,39.40
2018-05-17T06:19:17.184Z,32.57
2018-05-17T06:21:46.282Z,30.73
2018-05-17T06:24:15.362Z,32.23
2018-05-17T06:26:43.701Z,30.87
2018-05-17T06:29:12.022Z,28.40
2018-05-17T06:31:40.371Z,24.50
2018-05-17T06:34:08.684Z,30.30
2018-05-17T06:36:37.772Z,28.37
2018-05-17T06:39:06.187Z,25.13
2018-05-17T06:41:35.262Z,27.90
2018-05-17T06:44:03.594Z,33.37
2018-05-17T06:46:31.912Z,34.27
2018-05-17T06:49:00.241Z,27.50
2018-05-17T06:51:28.552Z,23.47
2018-05-17T06:53:56.876Z,31.33
2018-05-17T06:56:25.184Z,22.77
2018-05-17T06:58:53.551Z,28.73
2018-05-17T07:01:21.852Z,28.30
2018-05-17T07:03:50.155Z,21.93
2018-05-17T07:06:18.481Z,27.13
2018-05-17T07:08:46.788Z,22.83
2018-05-17T07:11:15.911Z,29.20
2018-05-17T07:13:44.225Z,18.07
2018-05-17T07:16:12.552Z,27.63
2018-05-17T07:18:41.397Z,23.63
2018-05-17T07:21:09.230Z,28.13
2018-05-17T07:23:37.565Z,21.07
2018-05-17T07:26:05.914Z,27.53
2018-05-17T07:28:34.238Z,22.27
2018-05-17T07:31:02.572Z,17.67
2018-05-17T07:33:30.879Z,25.13
2018-05-17T07:35:59.216Z,23.47
2018-05-17T07:38:27.572Z,24.53
2018-05-17T07:40:56.657Z,26.43
2018-05-17T07:43:24.961Z,25.43
2018-05-17T07:45:54.074Z,23.67
2018-05-17T07:48:22.627Z,23.30
2018-05-17T07:50:50.941Z,19.70
2018-05-17T07:53:19.291Z,23.00
2018-05-17T07:55:48.370Z,28.03
2018-05-17T07:58:16.698Z,29.90
2018-05-17T08:00:45.199Z,22.70
2018-05-17T08:03:13.657Z,25.23
2018-05-17T08:05:42.740Z,28.80
2018-05-17T08:08:12.015Z,20.53
2018-05-17T08:10:40.328Z,25.77
2018-05-17T08:13:09.466Z,21.57
2018-05-17T08:15:37.819Z,23.97
2018-05-17T08:18:06.899Z,22.00
2018-05-17T08:20:35.996Z,23.50
2018-05-17T08:23:04.319Z,24.70
2018-05-17T08:25:32.669Z,25.63
2018-05-17T08:28:01.809Z,24.57
2018-05-17T08:30:30.149Z,26.37
2018-05-17T08:32:59.259Z,23.53
2018-05-17T08:35:28.389Z,23.10
2018-05-17T08:37:56.704Z,26.70
2018-05-17T08:40:25.113Z,24.80
2018-05-17T08:42:54.204Z,23.67
2018-05-17T08:45:23.343Z,19.60
2018-05-17T08:47:51.647Z,25.13
2018-05-17T08:50:19.989Z,25.17
2018-05-17T08:52:48.313Z,20.10
2018-05-17T08:55:16.644Z,26.27
2018-05-17T08:57:45.747Z,28.07
2018-05-17T09:00:14.834Z,28.40
2018-05-17T09:02:43.183Z,23.40
2018-05-17T09:05:11.490Z,21.33
2018-05-17T09:07:40.611Z,22.43
2018-05-17T09:10:08.975Z,18.90
2018-05-17T09:12:38.054Z,22.70
2018-05-17T09:15:06.381Z,23.38
2018-05-17T09:17:35.458Z,23.20
2018-05-17T09:20:04.646Z,20.50
2018-05-17T09:22:32.930Z,20.80
2018-05-17T09:25:01.564Z,22.52
2018-05-17T09:27:29.882Z,24.13
2018-05-17T09:29:58.987Z,18.00
2018-05-17T09:32:27.357Z,21.50
2018-05-17T09:34:55.694Z,21.60
2018-05-17T09:37:24.003Z,24.45
2018-05-17T09:39:52.339Z,20.23
2018-05-17T09:42:21.435Z,18.90
2018-05-17T09:44:49.749Z,25.17
2018-05-17T09:47:18.090Z,21.42
2018-05-17T09:49:46.413Z,21.33
2018-05-17T09:52:14.747Z,21.45
2018-05-17T09:54:43.073Z,22.25
2018-05-17T09:57:12.996Z,22.82
2018-05-17T09:59:41.302Z,24.83
2018-05-17T10:02:09.637Z,19.80
2018-05-17T10:04:37.957Z,21.23
2018-05-17T10:07:06.287Z,20.00
2018-05-17T10:09:35.381Z,18.53
2018-05-17T10:12:04.492Z,21.30
2018-05-17T10:14:33.660Z,23.73
2018-05-17T10:17:01.951Z,19.77
2018-05-17T10:19:30.306Z,22.13
2018-05-17T10:21:58.619Z,22.90
2018-05-17T10:24:27.017Z,25.47
2018-05-17T10:26:56.095Z,22.13
2018-05-17T10:29:24.439Z,20.47
2018-05-17T10:31:52.758Z,21.07
2018-05-17T10:34:22.598Z,20.70
2018-05-17T10:36:51.685Z,21.77
2018-05-17T10:39:20.792Z,18.70
2018-05-17T10:41:49.885Z,24.57
2018-05-17T10:44:18.211Z,19.80
2018-05-17T10:46:46.536Z,25.50
2018-05-17T10:49:14.868Z,20.33
2018-05-17T10:54:16.514Z,21.30
2018-05-17T10:56:45.589Z,16.97
2018-05-17T10:59:14.667Z,21.30
2018-05-17T11:01:43.308Z,26.33
2018-05-17T11:04:11.638Z,22.47
2018-05-17T11:06:39.963Z,21.70
2018-05-17T11:09:09.567Z,21.70
2018-05-17T11:11:38.682Z,22.07
2018-05-17T11:14:08.857Z,24.77
2018-05-17T11:16:37.297Z,21.10
2018-05-17T11:19:07.215Z,21.23
2018-05-17T11:21:35.621Z,20.07
2018-05-17T11:24:04.087Z,21.87
2018-05-17T11:26:32.435Z,22.00
2018-05-17T11:29:01.771Z,24.00
2018-05-17T11:31:30.071Z,17.63
2018-05-17T11:33:58.406Z,21.20
2018-05-17T11:36:27.718Z,19.83
2018-05-17T11:38:56.825Z,17.60
2018-05-17T11:41:25.907Z,20.63
2018-05-17T11:43:55.001Z,20.13
2018-05-17T11:46:24.097Z,25.03
2018-05-17T11:48:52.428Z,18.90
2018-05-17T11:51:20.760Z,15.87
2018-05-17T11:53:49.095Z,15.87
2018-05-17T11:56:17.415Z,19.63
2018-05-17T11:58:46.540Z,17.27
2018-05-17T12:01:15.619Z,18.80
2018-05-17T12:03:43.944Z,18.07
2018-05-17T12:06:13.111Z,19.47
2018-05-17T12:08:42.186Z,17.77
2018-05-17T12:11:10.513Z,21.10
2018-05-17T12:13:38.841Z,21.40
2018-05-17T12:16:07.152Z,20.20
2018-05-17T12:18:36.236Z,19.50
2018-05-17T12:21:04.569Z,20.43
2018-05-17T12:23:32.878Z,20.60
2018-05-17T12:26:01.225Z,22.13
2018-05-17T12:28:29.560Z,21.60
2018-05-17T12:30:57.899Z,27.83
2018-05-17T12:33:26.230Z,24.77
2018-05-17T12:35:54.540Z,23.27
2018-05-17T12:38:22.939Z,23.07
2018-05-17T12:40:51.349Z,19.27
2018-05-17T12:43:19.678Z,21.23
2018-05-17T12:45:48.831Z,18.00
2018-05-17T12:48:17.215Z,18.80
2018-05-17T12:50:45.630Z,20.67
2018-05-17T12:53:13.914Z,18.73
2018-05-17T12:55:42.997Z,18.67
2018-05-17T12:58:12.853Z,18.23
2018-05-17T13:00:41.283Z,22.00
2018-05-17T13:03:09.626Z,17.13
2018-05-17T13:05:37.948Z,22.63
2018-05-17T13:08:06.290Z,17.43
2018-05-17T13:10:34.631Z,26.27
2018-05-17T13:13:02.999Z,19.77
2018-05-17T13:15:31.370Z,16.93
2018-05-17T13:17:59.695Z,19.33
2018-05-17T13:20:28.800Z,20.80
2018-05-17T13:22:57.954Z,19.57
2018-05-17T13:25:26.350Z,19.07
2018-05-17T13:27:54.672Z,23.93
2018-05-17T13:30:23.049Z,21.63
2018-05-17T13:32:51.377Z,24.67
2018-05-17T13:35:19.684Z,26.03
2018-05-17T13:37:48.147Z,22.60
2018-05-17T13:40:16.480Z,21.73
2018-05-17T13:42:44.816Z,17.80
2018-05-17T13:45:13.143Z,26.13
2018-05-17T13:47:41.801Z,18.40
2018-05-17T13:50:10.057Z,21.90
2018-05-17T13:52:38.394Z,18.97
2018-05-17T13:55:06.732Z,21.53
2018-05-17T13:57:36.694Z,19.93
2018-05-17T14:00:05.023Z,26.03
2018-05-17T14:02:33.491Z,29.70
2018-05-17T14:05:01.727Z,22.87
2018-05-17T14:07:30.079Z,21.93
2018-05-17T14:09:58.411Z,22.13
2018-05-17T14:12:27.514Z,19.97
2018-05-17T14:14:55.849Z,21.77
2018-05-17T14:17:24.167Z,19.83
2018-05-17T14:19:53.622Z,21.20
2018-05-17T14:22:22.104Z,18.33
2018-05-17T14:24:51.098Z,20.47
2018-05-17T14:27:19.601Z,24.53
2018-05-17T14:29:49.009Z,16.03
2018-05-17T14:32:17.344Z,19.03
2018-05-17T14:34:46.480Z,27.97
2018-05-17T14:37:14.798Z,21.47
2018-05-17T14:39:43.896Z,23.13
2018-05-17T14:42:12.383Z,18.33
2018-05-17T14:44:41.451Z,22.23
2018-05-17T14:47:09.789Z,18.63
2018-05-17T14:49:38.120Z,16.83
2018-05-17T14:52:06.460Z,20.87
2018-05-17T14:54:34.782Z,20.33
2018-05-17T14:57:03.121Z,24.97
2018-05-17T14:59:31.454Z,20.73
2018-05-17T15:02:00.577Z,22.27
2018-05-17T15:04:28.927Z,22.87
2018-05-17T15:06:58.760Z,20.23
2018-05-17T15:09:28.561Z,21.33
2018-05-17T15:11:56.895Z,17.80
2018-05-17T15:14:25.215Z,19.60
2018-05-17T15:16:53.561Z,21.43
2018-05-17T15:19:21.877Z,15.37
2018-05-17T15:21:50.184Z,20.27
2018-05-17T15:24:19.274Z,17.80
2018-05-17T15:26:47.669Z,18.10
2018-05-17T15:29:16.776Z,20.43
2018-05-17T15:31:45.095Z,20.13
2018-05-17T15:34:13.433Z,24.80
2018-05-17T15:36:42.523Z,19.03
2018-05-17T15:39:10.989Z,20.73
2018-05-17T15:41:39.458Z,21.13
2018-05-17T15:44:08.757Z,17.07
2018-05-17T15:46:37.146Z,18.10
2018-05-17T15:49:05.459Z,22.73
2018-05-17T15:51:34.574Z,27.00
2018-05-17T15:54:02.888Z,24.27
2018-05-17T15:56:31.222Z,24.27
2018-05-17T15:59:00.303Z,21.33
2018-05-17T16:03:57.193Z,21.47
2018-05-17T16:06:26.272Z,23.43
2018-05-17T16:08:56.498Z,22.93
2018-05-17T16:11:24.875Z,20.30
2018-05-17T16:13:53.301Z,24.27
2018-05-17T16:16:21.619Z,17.43
2018-05-17T16:18:49.952Z,18.83
2018-05-17T16:21:19.049Z,18.43
2018-05-17T16:23:48.096Z,20.20
2018-05-17T16:26:16.510Z,21.30
2018-05-17T16:28:46.364Z,18.87
2018-05-17T16:31:14.752Z,14.73
2018-05-17T16:33:43.087Z,15.40
2018-05-17T16:36:12.310Z,18.03
2018-05-17T16:38:41.395Z,22.00
2018-05-17T16:41:10.460Z,21.13
2018-05-17T16:43:38.788Z,23.03
2018-05-17T16:46:07.878Z,17.60
2018-05-17T16:48:37.129Z,17.77
2018-05-17T16:51:06.160Z,23.50
2018-05-17T16:53:34.479Z,18.67
2018-05-17T16:56:02.854Z,26.43
2018-05-17T16:58:31.172Z,21.07
2018-05-17T17:00:59.492Z,23.67
2018-05-17T17:03:27.814Z,24.43
2018-05-17T17:05:56.657Z,21.40
2018-05-17T17:08:25.026Z,23.17
2018-05-17T17:10:53.514Z,26.30
2018-05-17T17:13:21.992Z,24.20
2018-05-17T17:15:50.337Z,22.70
2018-05-17T17:18:20.389Z,26.74
2018-05-17T17:20:50.763Z,25.60
2018-05-17T17:23:21.420Z,26.90
2018-05-17T17:25:55.333Z,30.03
2018-05-17T17:28:30.167Z,25.67
2018-05-17T17:30:59.380Z,24.10
2018-05-17T17:33:28.575Z,27.80
2018-05-17T17:35:56.920Z,25.83
2018-05-17T17:38:26.286Z,33.13
2018-05-17T17:40:54.775Z,31.47
2018-05-17T17:43:23.140Z,29.53
2018-05-17T17:45:51.541Z,27.70
2018-05-17T17:48:22.633Z,33.55
2018-05-17T17:50:56.117Z,33.13
2018-05-17T17:53:25.429Z,26.93
2018-05-17T17:55:54.664Z,34.90
2018-05-17T17:58:23.872Z,27.10
2018-05-17T18:00:52.779Z,31.97
2018-05-17T18:03:21.268Z,27.73
2018-05-17T18:05:50.930Z,28.73
2018-05-17T18:08:20.802Z,39.03
2018-05-17T18:10:50.453Z,41.73
2018-05-17T18:13:19.273Z,27.93
2018-05-17T18:15:50.422Z,27.97
2018-05-17T18:18:19.542Z,26.40
2018-05-17T18:20:49.994Z,28.80
2018-05-17T18:23:19.075Z,28.63
2018-05-17T18:25:48.528Z,27.20
2018-05-17T18:28:17.473Z,26.07
2018-05-17T18:30:47.048Z,26.60
2018-05-17T18:33:15.774Z,31.50
2018-05-17T18:35:44.940Z,28.97
2018-05-17T18:38:16.117Z,29.93
2018-05-17T18:40:46.653Z,29.57
2018-05-17T18:43:16.279Z,30.23
2018-05-17T18:45:47.638Z,26.77
2018-05-17T18:48:16.716Z,26.43
2018-05-17T18:50:47.563Z,33.87
2018-05-17T18:53:17.680Z,25.10
2018-05-17T18:55:47.849Z,28.57
2018-05-17T18:58:16.900Z,28.03
2018-05-17T19:00:46.882Z,25.60
2018-05-17T19:03:18.679Z,22.47
2018-05-17T19:05:47.478Z,35.13
2018-05-17T19:08:16.556Z,23.83
2018-05-17T19:10:46.378Z,24.90
2018-05-17T19:13:16.002Z,23.10
2018-05-17T19:15:45.807Z,25.47
2018-05-17T19:18:15.530Z,27.70
2018-05-17T19:20:44.671Z,26.70
2018-05-17T19:23:13.806Z,29.77
2018-05-17T19:25:42.621Z,24.97
2018-05-17T19:28:12.269Z,31.97
2018-05-17T19:30:40.914Z,25.27
2018-05-17T19:33:09.326Z,26.40
2018-05-17T19:35:37.795Z,22.73
2018-05-17T19:38:06.141Z,21.13
2018-05-17T19:40:34.487Z,30.50
2018-05-17T19:43:03.622Z,30.03
2018-05-17T19:45:32.129Z,31.10
2018-05-17T19:48:01.642Z,29.63
2018-05-17T19:50:31.053Z,28.67
2018-05-17T19:52:59.484Z,27.10
2018-05-17T19:55:28.378Z,30.47
2018-05-17T19:57:57.346Z,31.20
2018-05-17T20:00:26.726Z,25.97
2018-05-17T20:02:55.168Z,35.33
2018-05-17T20:05:24.085Z,26.67
2018-05-17T20:07:52.626Z,34.43
2018-05-17T20:10:21.004Z,31.37
2018-05-17T20:12:50.379Z,31.90
2018-05-17T20:15:19.665Z,31.37
2018-05-17T20:17:48.881Z,32.60
2018-05-17T20:20:17.279Z,26.80
2018-05-17T20:22:45.672Z,34.67
2018-05-17T20:25:16.145Z,26.33
2018-05-17T20:27:46.611Z,30.87
2018-05-17T20:30:15.137Z,24.63
2018-05-17T20:32:43.528Z,25.43
2018-05-17T20:35:12.762Z,24.37
2018-05-17T20:37:41.183Z,31.80
2018-05-17T20:40:09.555Z,29.43
2018-05-17T20:42:38.134Z,29.20
2018-05-17T20:45:06.583Z,20.87
2018-05-17T20:47:34.941Z,22.90
2018-05-17T20:50:04.055Z,21.70
2018-05-17T20:52:32.381Z,21.60
2018-05-17T20:55:00.712Z,28.13
2018-05-17T20:57:29.789Z,24.53
2018-05-17T20:59:58.904Z,20.73
2018-05-17T21:02:27.340Z,19.43
2018-05-17T21:04:55.700Z,21.63
2018-05-17T21:07:24.024Z,24.17
2018-05-17T21:09:52.335Z,20.57
2018-05-17T21:12:21.516Z,33.13
2018-05-17T21:14:51.218Z,17.63
2018-05-17T21:17:19.568Z,22.23
2018-05-17T21:19:47.878Z,17.10
2018-05-17T21:22:17.055Z,18.80
2018-05-17T21:24:45.367Z,15.83
2018-05-17T21:27:13.838Z,16.03
2018-05-17T21:29:42.112Z,9.80
2018-05-17T21:32:11.286Z,15.87
2018-05-17T21:34:39.615Z,13.37
2018-05-17T21:37:07.961Z,17.70
2018-05-17T21:39:36.294Z,15.37
2018-05-17T21:42:05.426Z,15.23
2018-05-17T21:44:33.766Z,16.00
2018-05-17T21:47:02.864Z,15.83
2018-05-17T21:49:31.224Z,14.40
2018-05-17T21:52:00.319Z,15.43
2018-05-17T21:54:28.696Z,14.83
2018-05-17T21:56:57.030Z,14.93
2018-05-17T21:59:26.126Z,11.73
2018-05-17T22:01:55.224Z,16.50
2018-05-17T22:04:24.353Z,13.80
2018-05-17T22:06:52.860Z,13.30
2018-05-17T22:09:21.289Z,12.20
2018-05-17T22:11:50.593Z,17.00
2018-05-17T22:14:19.679Z,16.77
2018-05-17T22:16:49.072Z,12.43
2018-05-17T22:19:17.495Z,13.97
2018-05-17T22:21:48.148Z,12.70
2018-05-17T22:24:16.635Z,12.57
2018-05-17T22:26:45.161Z,23.10
2018-05-17T22:29:13.659Z,16.33
2018-05-17T22:31:41.983Z,15.70
2018-05-17T22:34:10.334Z,15.67
2018-05-17T22:36:39.728Z,18.50
2018-05-17T22:39:08.197Z,18.77
2018-05-17T22:41:36.520Z,16.87
2018-05-17T22:44:04.873Z,21.10
2018-05-17T22:46:33.192Z,17.70
2018-05-17T22:49:01.677Z,18.30
2018-05-17T22:51:30.028Z,18.10
2018-05-17T22:53:59.122Z,23.17
2018-05-17T22:56:40.178Z,17.67
2018-05-17T22:59:09.221Z,26.40
2018-05-17T23:01:38.315Z,20.07
2018-05-17T23:04:06.669Z,21.53
2018-05-17T23:06:34.980Z,25.00
2018-05-17T23:09:03.316Z,23.63
2018-05-17T23:11:31.614Z,21.37
2018-05-17T23:13:59.951Z,20.33
2018-05-17T23:16:28.270Z,19.60
2018-05-17T23:18:56.577Z,20.43
2018-05-17T23:21:25.701Z,20.47
2018-05-17T23:23:54.008Z,17.13
2018-05-17T23:26:22.339Z,18.80
2018-05-17T23:28:50.643Z,29.70
2018-05-17T23:31:18.992Z,32.03
2018-05-17T23:33:48.076Z,22.37
2018-05-17T23:36:16.398Z,35.07
2018-05-17T23:38:44.720Z,31.50
2018-05-17T23:41:24.922Z,27.47
2018-05-17T23:43:53.236Z,25.13
2018-05-17T23:46:21.564Z,23.47
2018-05-17T23:48:50.678Z,25.30
2018-05-17T23:51:19.776Z,28.27
2018-05-17T23:53:48.850Z,28.33
2018-05-17T23:56:17.170Z,29.83
2018-05-17T23:58:45.508Z,30.30
